Time;durP1;ratioP1;P1;durP2;ratioP2;P2;SDS_P1;SDS_P2;PMS_P1;PMS_P2;Temp;Humidity;BMP_temperature;BMP_pressure;BME280_temperature;BME280_humidity;BME280_pressure;Samples;Min_cycle;Max_cycle;Signal;HPM_P1;HPM_P2
2022/03/15 00:01:56;;;;;;;29.07;19.10;;;;;;;;;;779350;177;630857;-63
2022/03/15 00:04:22;;;;;;;34.60;19.37;;;;;;;;;;784058;178;863094;-63
2022/03/15 00:06:48;;;;;;;32.53;20.20;;;;;;;;;;779739;179;919347;-63
2022/03/15 00:09:14;;;;;;;29.47;17.97;;;;;;;;;;775586;179;919606;-63
2022/03/15 00:11:40;;;;;;;31.40;20.23;;;;;;;;;;780678;179;915481;-62
2022/03/15 00:14:06;;;;;;;33.07;18.60;;;;;;;;;;775822;179;916345;-62
2022/03/15 00:16:31;;;;;;;32.70;19.70;;;;;;;;;;777247;179;1027087;-63
2022/03/15 00:18:57;;;;;;;33.22;19.02;;;;;;;;;;780068;179;915984;-61
2022/03/15 00:21:25;;;;;;;35.33;22.63;;;;;;;;;;777644;179;917227;-62
2022/03/15 00:23:49;;;;;;;32.20;19.87;;;;;;;;;;775930;179;919176;-62
2022/03/15 00:26:15;;;;;;;34.77;22.73;;;;;;;;;;773236;180;920124;-63
2022/03/15 00:28:41;;;;;;;28.63;18.87;;;;;;;;;;771351;182;920573;-62
2022/03/15 00:31:07;;;;;;;38.25;22.75;;;;;;;;;;766665;180;916506;-63
2022/03/15 00:33:33;;;;;;;37.07;20.87;;;;;;;;;;775145;179;914307;-62
2022/03/15 00:35:59;;;;;;;36.10;20.30;;;;;;;;;;783803;179;913131;-62
2022/03/15 00:38:25;;;;;;;36.03;20.60;;;;;;;;;;780338;179;912061;-64
2022/03/15 00:40:51;;;;;;;34.13;21.80;;;;;;;;;;778491;178;917088;-62
2022/03/15 00:43:17;;;;;;;30.13;19.57;;;;;;;;;;776362;180;916418;-63
2022/03/15 00:45:42;;;;;;;33.27;19.80;;;;;;;;;;770165;180;921044;-63
2022/03/15 00:48:09;;;;;;;28.37;17.60;;;;;;;;;;775544;179;920084;-62
2022/03/15 00:50:36;;;;;;;36.37;20.43;;;;;;;;;;774718;180;919401;-64
2022/03/15 00:53:00;;;;;;;36.23;21.77;;;;;;;;;;769712;183;918907;-64
2022/03/15 00:55:26;;;;;;;37.97;22.17;;;;;;;;;;758803;179;1840256;-62
2022/03/15 00:57:52;;;;;;;33.13;19.73;;;;;;;;;;778375;180;925220;-64
2022/03/15 01:00:19;;;;;;;33.03;20.73;;;;;;;;;;783311;180;919486;-64
2022/03/15 01:02:44;;;;;;;38.20;20.87;;;;;;;;;;774070;180;918121;-63
2022/03/15 01:05:09;;;;;;;31.00;19.67;;;;;;;;;;773039;180;919840;-63
2022/03/15 01:07:35;;;;;;;33.00;21.10;;;;;;;;;;772082;181;919049;-63
2022/03/15 01:10:01;;;;;;;32.30;20.70;;;;;;;;;;765088;181;920266;-63
2022/03/15 01:12:27;;;;;;;33.43;22.43;;;;;;;;;;770297;180;917397;-63
2022/03/15 01:14:53;;;;;;;37.03;21.23;;;;;;;;;;774559;177;918441;-63
2022/03/15 01:17:19;;;;;;;34.10;21.50;;;;;;;;;;779627;177;920351;-64
2022/03/15 01:19:44;;;;;;;42.23;21.80;;;;;;;;;;773912;179;919407;-64
2022/03/15 01:22:10;;;;;;;32.23;19.80;;;;;;;;;;778246;179;921453;-63
2022/03/15 01:24:36;;;;;;;33.47;20.63;;;;;;;;;;778638;178;918957;-63
2022/03/15 01:27:02;;;;;;;34.80;20.57;;;;;;;;;;778608;179;940973;-65
2022/03/15 01:29:28;;;;;;;36.63;22.25;;;;;;;;;;780840;179;919557;-64
2022/03/15 01:31:54;;;;;;;33.97;21.47;;;;;;;;;;776591;179;918457;-63
2022/03/15 01:34:20;;;;;;;33.03;22.10;;;;;;;;;;772459;178;918248;-63
2022/03/15 01:36:45;;;;;;;40.50;20.90;;;;;;;;;;772167;180;942682;-63
2022/03/15 01:39:11;;;;;;;38.27;22.40;;;;;;;;;;772928;180;918821;-61
2022/03/15 01:41:39;;;;;;;36.47;21.83;;;;;;;;;;778279;179;918934;-65
2022/03/15 01:44:03;;;;;;;39.00;21.33;;;;;;;;;;777697;179;919108;-63
2022/03/15 01:46:29;;;;;;;40.10;23.73;;;;;;;;;;777023;179;919802;-63
2022/03/15 01:48:56;;;;;;;35.40;19.77;;;;;;;;;;778967;180;918555;-64
2022/03/15 01:51:21;;;;;;;34.80;21.83;;;;;;;;;;774034;180;918820;-64
2022/03/15 01:53:47;;;;;;;38.50;22.67;;;;;;;;;;775884;180;918820;-64
2022/03/15 01:56:13;;;;;;;33.27;22.03;;;;;;;;;;775608;178;919413;-64
2022/03/15 01:58:39;;;;;;;33.70;21.15;;;;;;;;;;773918;179;919038;-64
2022/03/15 02:01:05;;;;;;;34.80;20.60;;;;;;;;;;775362;180;919279;-64
2022/03/15 02:03:31;;;;;;;42.83;23.60;;;;;;;;;;777285;180;919430;-63
2022/03/15 02:05:56;;;;;;;43.23;23.80;;;;;;;;;;768995;178;920249;-63
2022/03/15 02:08:22;;;;;;;40.73;23.73;;;;;;;;;;777252;179;919645;-62
2022/03/15 02:10:48;;;;;;;42.23;23.77;;;;;;;;;;775444;178;919745;-63
2022/03/15 02:13:14;;;;;;;41.43;24.30;;;;;;;;;;776882;179;918734;-63
2022/03/15 02:15:40;;;;;;;38.10;21.97;;;;;;;;;;776572;180;919479;-63
2022/03/15 02:18:06;;;;;;;36.20;22.62;;;;;;;;;;777139;179;919391;-63
2022/03/15 02:20:32;;;;;;;34.80;21.93;;;;;;;;;;784641;179;920020;-64
2022/03/15 02:22:57;;;;;;;39.97;22.03;;;;;;;;;;777572;179;920744;-64
2022/03/15 02:25:24;;;;;;;49.40;22.17;;;;;;;;;;779193;178;919772;-63
2022/03/15 02:27:49;;;;;;;41.57;25.20;;;;;;;;;;784442;179;919601;-63
2022/03/15 02:30:15;;;;;;;46.42;24.12;;;;;;;;;;776979;179;919061;-63
2022/03/15 02:32:42;;;;;;;45.37;26.13;;;;;;;;;;769454;180;919709;-63
2022/03/15 02:35:07;;;;;;;45.43;24.13;;;;;;;;;;765550;180;919723;-62
2022/03/15 02:37:34;;;;;;;37.60;24.80;;;;;;;;;;774388;180;919162;-63
2022/03/15 02:39:59;;;;;;;45.27;24.40;;;;;;;;;;779112;179;919540;-64
2022/03/15 02:42:25;;;;;;;39.47;22.27;;;;;;;;;;778248;179;919293;-62
2022/03/15 02:44:51;;;;;;;42.33;22.58;;;;;;;;;;783271;179;919169;-62
2022/03/15 02:47:16;;;;;;;37.83;21.33;;;;;;;;;;775421;179;921193;-63
2022/03/15 02:49:43;;;;;;;37.13;22.93;;;;;;;;;;779491;179;919426;-62
2022/03/15 02:52:10;;;;;;;37.40;23.50;;;;;;;;;;782880;179;919111;-62
2022/03/15 02:54:34;;;;;;;42.93;24.77;;;;;;;;;;778852;180;919311;-63
2022/03/15 02:57:01;;;;;;;46.27;23.27;;;;;;;;;;777284;180;1020512;-63
2022/03/15 02:59:28;;;;;;;47.40;23.60;;;;;;;;;;775225;180;1021664;-61
2022/03/15 03:01:52;;;;;;;38.50;21.83;;;;;;;;;;778904;180;918975;-63
2022/03/15 03:04:18;;;;;;;38.43;21.70;;;;;;;;;;775429;180;920788;-62
2022/03/15 03:06:44;;;;;;;32.97;21.30;;;;;;;;;;773806;180;919862;-62
2022/03/15 03:09:09;;;;;;;38.35;22.50;;;;;;;;;;777036;180;919612;-63
2022/03/15 03:11:35;;;;;;;40.37;24.30;;;;;;;;;;776144;180;919445;-62
2022/03/15 03:14:01;;;;;;;37.83;21.98;;;;;;;;;;777207;179;983157;-62
2022/03/15 03:16:28;;;;;;;34.30;21.73;;;;;;;;;;783736;180;918728;-63
2022/03/15 03:18:58;;;;;;;40.90;23.40;;;;;;;;;;779978;177;921240;-62
2022/03/15 03:21:20;;;;;;;39.10;23.87;;;;;;;;;;779258;179;920390;-63
2022/03/15 03:23:45;;;;;;;36.20;21.83;;;;;;;;;;776023;179;919112;-62
2022/03/15 03:26:11;;;;;;;33.93;22.13;;;;;;;;;;770444;179;916214;-63
2022/03/15 03:28:38;;;;;;;33.47;20.20;;;;;;;;;;771252;179;917017;-61
2022/03/15 03:31:03;;;;;;;43.57;23.10;;;;;;;;;;779285;177;915807;-62
2022/03/15 03:33:28;;;;;;;37.83;22.50;;;;;;;;;;781990;179;916368;-61
2022/03/15 03:35:54;;;;;;;35.97;22.33;;;;;;;;;;775999;178;958620;-61
2022/03/15 03:38:20;;;;;;;35.43;23.77;;;;;;;;;;778738;179;1017837;-62
2022/03/15 03:40:46;;;;;;;41.60;22.80;;;;;;;;;;783693;179;917070;-61
2022/03/15 03:43:12;;;;;;;38.07;24.10;;;;;;;;;;769911;180;919527;-62
2022/03/15 03:45:38;;;;;;;33.77;21.63;;;;;;;;;;769763;179;919912;-61
2022/03/15 03:48:05;;;;;;;46.17;23.03;;;;;;;;;;780361;179;634237;-62
2022/03/15 03:50:30;;;;;;;44.83;23.80;;;;;;;;;;779231;180;919342;-62
2022/03/15 03:52:55;;;;;;;38.80;23.87;;;;;;;;;;777380;177;944406;-62
2022/03/15 03:55:21;;;;;;;38.30;23.20;;;;;;;;;;778144;180;919361;-61
2022/03/15 03:57:47;;;;;;;35.90;21.53;;;;;;;;;;781451;179;919134;-61
2022/03/15 04:00:14;;;;;;;41.00;24.90;;;;;;;;;;777344;179;921511;-61
2022/03/15 04:02:39;;;;;;;41.83;24.70;;;;;;;;;;778487;177;919702;-61
2022/03/15 04:05:06;;;;;;;39.60;24.27;;;;;;;;;;784267;179;916795;-61
2022/03/15 04:07:32;;;;;;;38.73;25.20;;;;;;;;;;777649;177;1018062;-61
2022/03/15 04:09:58;;;;;;;36.27;23.00;;;;;;;;;;774881;179;919616;-61
2022/03/15 04:12:24;;;;;;;44.70;24.03;;;;;;;;;;780342;176;915654;-61
2022/03/15 04:14:49;;;;;;;36.23;21.80;;;;;;;;;;772864;179;920032;-60
2022/03/15 04:17:15;;;;;;;35.50;23.80;;;;;;;;;;774134;179;1020432;-61
2022/03/15 04:19:41;;;;;;;36.13;23.20;;;;;;;;;;772061;179;919711;-60
2022/03/15 04:22:07;;;;;;;33.00;22.77;;;;;;;;;;774672;177;917040;-61
2022/03/15 04:24:33;;;;;;;36.13;23.53;;;;;;;;;;774530;179;919300;-61
2022/03/15 04:26:59;;;;;;;39.27;24.70;;;;;;;;;;771181;180;1016997;-61
2022/03/15 04:29:24;;;;;;;39.70;24.20;;;;;;;;;;773915;180;919147;-61
2022/03/15 04:31:50;;;;;;;38.27;24.50;;;;;;;;;;775436;179;918963;-61
2022/03/15 04:34:17;;;;;;;37.17;22.43;;;;;;;;;;774012;179;919390;-61
2022/03/15 04:36:43;;;;;;;35.60;24.57;;;;;;;;;;782282;179;922137;-60
2022/03/15 04:39:08;;;;;;;39.77;24.27;;;;;;;;;;776809;178;919514;-60
2022/03/15 04:41:34;;;;;;;37.50;23.17;;;;;;;;;;777774;179;919730;-61
2022/03/15 04:44:00;;;;;;;37.50;23.57;;;;;;;;;;783442;179;919382;-60
2022/03/15 04:46:25;;;;;;;37.63;23.97;;;;;;;;;;777302;180;920441;-60
2022/03/15 04:48:52;;;;;;;40.30;23.03;;;;;;;;;;774446;178;943281;-60
2022/03/15 04:51:17;;;;;;;41.03;24.20;;;;;;;;;;779263;179;918718;-60
2022/03/15 04:53:43;;;;;;;38.40;23.37;;;;;;;;;;777952;180;919284;-61
2022/03/15 04:56:09;;;;;;;36.00;23.00;;;;;;;;;;772791;179;921813;-61
2022/03/15 04:58:35;;;;;;;36.27;22.70;;;;;;;;;;776207;178;918846;-61
2022/03/15 05:01:00;;;;;;;32.03;21.17;;;;;;;;;;778560;180;918085;-60
2022/03/15 05:03:26;;;;;;;38.40;23.87;;;;;;;;;;775045;178;919133;-61
2022/03/15 05:05:52;;;;;;;35.00;21.53;;;;;;;;;;778439;179;918716;-61
2022/03/15 05:08:18;;;;;;;39.23;22.70;;;;;;;;;;783442;179;918965;-61
2022/03/15 05:13:16;;;;;;;39.07;23.20;;;;;;;;;;773185;179;918714;-61
2022/03/15 05:15:41;;;;;;;41.30;22.10;;;;;;;;;;776774;180;916826;-61
2022/03/15 05:18:07;;;;;;;40.33;23.70;;;;;;;;;;780461;177;637038;-60
2022/03/15 05:20:33;;;;;;;36.03;23.17;;;;;;;;;;783461;179;614914;-60
2022/03/15 05:22:59;;;;;;;40.05;22.42;;;;;;;;;;771407;179;1737620;-62
2022/03/15 05:25:25;;;;;;;40.90;21.43;;;;;;;;;;782692;178;918752;-62
2022/03/15 05:27:51;;;;;;;37.20;23.30;;;;;;;;;;774745;179;919567;-62
2022/03/15 05:30:17;;;;;;;36.83;22.50;;;;;;;;;;776757;179;1022043;-62
2022/03/15 05:32:42;;;;;;;34.77;22.50;;;;;;;;;;772527;180;918359;-61
2022/03/15 05:35:08;;;;;;;45.07;21.37;;;;;;;;;;767018;181;918938;-61
2022/03/15 05:37:34;;;;;;;37.50;24.03;;;;;;;;;;771353;180;919955;-62
2022/03/15 05:40:00;;;;;;;44.67;23.98;;;;;;;;;;773759;179;919376;-61
2022/03/15 05:42:26;;;;;;;41.40;24.40;;;;;;;;;;780056;178;918661;-62
2022/03/15 05:44:52;;;;;;;36.20;22.43;;;;;;;;;;775994;179;919948;-61
2022/03/15 05:47:18;;;;;;;34.80;22.05;;;;;;;;;;775372;180;919001;-62
2022/03/15 05:49:43;;;;;;;42.97;26.83;;;;;;;;;;782696;179;919718;-61
2022/03/15 05:52:09;;;;;;;41.70;26.43;;;;;;;;;;770822;179;1021454;-61
2022/03/15 05:54:35;;;;;;;35.87;23.90;;;;;;;;;;774397;179;920158;-62
2022/03/15 05:57:01;;;;;;;37.60;23.87;;;;;;;;;;779717;179;919377;-63
2022/03/15 05:59:27;;;;;;;53.77;30.30;;;;;;;;;;775220;179;920284;-61
2022/03/15 06:01:53;;;;;;;41.10;25.37;;;;;;;;;;774649;177;1021628;-62
2022/03/15 06:04:19;;;;;;;44.80;28.10;;;;;;;;;;777272;178;920349;-62
2022/03/15 06:06:45;;;;;;;43.90;26.73;;;;;;;;;;780520;179;917433;-62
2022/03/15 06:09:10;;;;;;;48.97;28.37;;;;;;;;;;777321;179;919310;-61
2022/03/15 06:11:39;;;;;;;51.10;31.63;;;;;;;;;;774423;179;919257;-62
2022/03/15 06:14:02;;;;;;;46.85;30.02;;;;;;;;;;780766;179;918900;-62
2022/03/15 06:16:28;;;;;;;54.17;31.10;;;;;;;;;;774368;179;1019708;-60
2022/03/15 06:18:53;;;;;;;52.90;29.30;;;;;;;;;;776865;180;919585;-61
2022/03/15 06:21:19;;;;;;;50.97;29.00;;;;;;;;;;783670;180;919150;-61
2022/03/15 06:23:45;;;;;;;55.30;31.60;;;;;;;;;;773967;180;922128;-61
2022/03/15 06:26:11;;;;;;;69.97;41.85;;;;;;;;;;770547;179;922643;-61
2022/03/15 06:28:37;;;;;;;62.90;33.47;;;;;;;;;;773607;179;918882;-61
2022/03/15 06:31:03;;;;;;;48.43;32.30;;;;;;;;;;778335;179;919322;-62
2022/03/15 06:33:29;;;;;;;72.22;42.72;;;;;;;;;;771777;180;1021916;-62
2022/03/15 06:35:55;;;;;;;86.93;51.27;;;;;;;;;;771314;179;919848;-61
2022/03/15 06:38:20;;;;;;;57.97;33.67;;;;;;;;;;779740;179;919823;-62
2022/03/15 06:40:49;;;;;;;50.13;33.97;;;;;;;;;;774789;179;920914;-62
2022/03/15 06:43:13;;;;;;;43.73;25.53;;;;;;;;;;770050;178;919412;-62
2022/03/15 06:45:38;;;;;;;40.42;26.70;;;;;;;;;;779368;179;920212;-62
2022/03/15 06:48:04;;;;;;;37.10;23.27;;;;;;;;;;777252;179;919435;-62
2022/03/15 06:50:30;;;;;;;44.90;25.10;;;;;;;;;;775063;180;919241;-63
2022/03/15 06:52:56;;;;;;;32.83;21.30;;;;;;;;;;779946;179;919915;-63
2022/03/15 06:55:22;;;;;;;33.70;17.87;;;;;;;;;;774147;179;920368;-63
2022/03/15 06:57:48;;;;;;;35.40;19.30;;;;;;;;;;774429;177;919300;-63
2022/03/15 07:00:14;;;;;;;28.83;18.17;;;;;;;;;;771713;180;921510;-64
2022/03/15 07:02:39;;;;;;;26.57;15.80;;;;;;;;;;778233;179;920895;-64
2022/03/15 07:05:06;;;;;;;33.10;19.97;;;;;;;;;;777532;179;922238;-65
2022/03/15 07:07:32;;;;;;;47.80;19.67;;;;;;;;;;770403;180;919396;-65
2022/03/15 07:09:57;;;;;;;39.47;22.03;;;;;;;;;;780834;179;919130;-64
2022/03/15 07:12:24;;;;;;;44.00;21.70;;;;;;;;;;777419;179;920093;-65
2022/03/15 07:14:49;;;;;;;48.00;27.40;;;;;;;;;;776146;176;919440;-64
2022/03/15 07:17:15;;;;;;;44.07;25.70;;;;;;;;;;780504;179;912353;-65
2022/03/15 07:19:41;;;;;;;36.57;18.70;;;;;;;;;;774298;179;918660;-65
2022/03/15 07:22:07;;;;;;;39.47;24.23;;;;;;;;;;773824;180;919426;-65
2022/03/15 07:24:33;;;;;;;23.07;14.13;;;;;;;;;;774558;179;920545;-64
2022/03/15 07:26:58;;;;;;;33.87;16.47;;;;;;;;;;779992;179;919476;-64
2022/03/15 07:29:24;;;;;;;24.40;13.63;;;;;;;;;;774331;179;920036;-64
2022/03/15 07:31:50;;;;;;;18.10;13.00;;;;;;;;;;774682;179;924717;-64
2022/03/15 07:34:16;;;;;;;19.67;12.23;;;;;;;;;;778666;178;919559;-65
2022/03/15 07:36:42;;;;;;;20.10;14.17;;;;;;;;;;773470;179;919069;-65
2022/03/15 07:39:08;;;;;;;19.33;12.00;;;;;;;;;;773726;179;920433;-65
2022/03/15 07:41:40;;;;;;;27.97;14.20;;;;;;;;;;778244;179;918637;-65
2022/03/15 07:44:00;;;;;;;31.63;17.70;;;;;;;;;;774980;179;921163;-64
2022/03/15 07:46:25;;;;;;;31.67;21.93;;;;;;;;;;773081;179;918508;-63
2022/03/15 07:48:51;;;;;;;28.57;18.57;;;;;;;;;;772244;179;919435;-64
2022/03/15 07:51:17;;;;;;;31.67;19.23;;;;;;;;;;777168;178;919707;-64
2022/03/15 07:53:43;;;;;;;37.37;23.90;;;;;;;;;;773898;179;913134;-65
2022/03/15 07:56:10;;;;;;;74.93;37.67;;;;;;;;;;773060;179;912648;-63
2022/03/15 07:58:34;;;;;;;52.33;27.70;;;;;;;;;;779904;179;915528;-64
2022/03/15 08:01:00;;;;;;;53.60;27.47;;;;;;;;;;774778;179;919548;-63
2022/03/15 08:03:26;;;;;;;50.60;26.80;;;;;;;;;;773075;180;933724;-63
2022/03/15 08:05:52;;;;;;;48.87;30.20;;;;;;;;;;778983;179;918076;-64
2022/03/15 08:08:18;;;;;;;25.17;15.83;;;;;;;;;;771566;179;919239;-64
2022/03/15 08:10:44;;;;;;;32.90;16.07;;;;;;;;;;774204;179;920719;-64
2022/03/15 08:13:09;;;;;;;28.00;17.70;;;;;;;;;;775907;179;919430;-63
2022/03/15 08:15:35;;;;;;;39.97;21.87;;;;;;;;;;774935;179;919524;-64
2022/03/15 08:18:03;;;;;;;38.03;22.00;;;;;;;;;;773633;179;920473;-64
2022/03/15 08:20:43;;;;;;;32.63;18.77;;;;;;;;;;775399;179;919554;-64
2022/03/15 08:23:12;;;;;;;23.47;13.80;;;;;;;;;;773704;179;919982;-63
2022/03/15 08:25:36;;;;;;;19.93;13.50;;;;;;;;;;780907;178;919411;-64
2022/03/15 08:28:02;;;;;;;22.63;13.73;;;;;;;;;;775558;178;919412;-64
2022/03/15 08:30:28;;;;;;;19.70;13.10;;;;;;;;;;776435;179;925558;-64
2022/03/15 08:32:54;;;;;;;23.20;13.20;;;;;;;;;;783156;179;893028;-64
2022/03/15 08:35:21;;;;;;;35.17;17.50;;;;;;;;;;776063;179;919106;-63
2022/03/15 08:37:50;;;;;;;28.27;15.90;;;;;;;;;;771816;177;920065;-64
2022/03/15 08:40:13;;;;;;;25.75;15.00;;;;;;;;;;773953;179;1020999;-63
2022/03/15 08:42:40;;;;;;;18.00;11.60;;;;;;;;;;773387;180;919608;-64
2022/03/15 08:45:06;;;;;;;20.63;13.50;;;;;;;;;;772695;178;990511;-64
2022/03/15 08:47:33;;;;;;;26.03;11.77;;;;;;;;;;771435;179;919138;-64
2022/03/15 08:49:58;;;;;;;21.70;11.23;;;;;;;;;;780095;179;919320;-64
2022/03/15 08:52:24;;;;;;;20.02;10.98;;;;;;;;;;777636;179;919391;-65
2022/03/15 08:54:50;;;;;;;16.13;10.60;;;;;;;;;;777181;179;1021774;-65
2022/03/15 08:57:17;;;;;;;15.33;9.87;;;;;;;;;;781536;179;919386;-65
2022/03/15 08:59:41;;;;;;;16.60;10.47;;;;;;;;;;773378;179;921428;-65
2022/03/15 09:02:09;;;;;;;19.80;11.10;;;;;;;;;;773643;179;919752;-66
2022/03/15 09:04:33;;;;;;;26.00;11.40;;;;;;;;;;782108;180;636313;-66
2022/03/15 09:06:59;;;;;;;17.23;10.13;;;;;;;;;;776267;179;625281;-65
2022/03/15 09:09:25;;;;;;;15.37;9.20;;;;;;;;;;777188;178;627102;-65
2022/03/15 09:11:51;;;;;;;14.17;9.23;;;;;;;;;;781224;179;624989;-65
2022/03/15 09:14:16;;;;;;;14.77;10.30;;;;;;;;;;782762;180;634961;-65
2022/03/15 09:16:42;;;;;;;17.10;10.30;;;;;;;;;;780431;177;616708;-65
2022/03/15 09:19:09;;;;;;;17.23;9.17;;;;;;;;;;776593;180;619020;-65
2022/03/15 09:21:34;;;;;;;14.90;10.50;;;;;;;;;;779577;179;634649;-66
2022/03/15 09:24:00;;;;;;;16.77;9.87;;;;;;;;;;776045;178;614961;-65
2022/03/15 09:26:26;;;;;;;13.83;9.53;;;;;;;;;;776404;179;684427;-66
2022/03/15 09:28:51;;;;;;;16.77;9.50;;;;;;;;;;782215;179;630769;-66
2022/03/15 09:31:17;;;;;;;17.50;10.83;;;;;;;;;;778776;179;642359;-67
2022/03/15 09:33:43;;;;;;;16.10;11.60;;;;;;;;;;784139;179;633171;-65
2022/03/15 09:36:09;;;;;;;19.93;10.40;;;;;;;;;;785509;178;631698;-65
2022/03/15 09:38:35;;;;;;;15.00;9.23;;;;;;;;;;778880;179;628216;-66
2022/03/15 09:41:02;;;;;;;16.53;10.10;;;;;;;;;;777285;179;615289;-67
2022/03/15 09:43:28;;;;;;;19.97;10.30;;;;;;;;;;779164;179;636398;-65
2022/03/15 09:45:54;;;;;;;15.50;8.63;;;;;;;;;;783547;179;626668;-67
2022/03/15 09:48:19;;;;;;;15.27;9.77;;;;;;;;;;778898;179;721911;-66
2022/03/15 09:50:45;;;;;;;11.87;9.77;;;;;;;;;;777363;179;630171;-66
2022/03/15 09:53:11;;;;;;;12.67;9.13;;;;;;;;;;779695;179;675753;-66
2022/03/15 09:55:37;;;;;;;16.43;8.50;;;;;;;;;;780926;179;630911;-67
2022/03/15 09:58:03;;;;;;;12.83;8.77;;;;;;;;;;781074;179;625121;-67
2022/03/15 10:00:29;;;;;;;15.63;9.77;;;;;;;;;;780775;179;623345;-66
2022/03/15 10:02:54;;;;;;;16.60;9.87;;;;;;;;;;765955;182;614877;-66
2022/03/15 10:05:21;;;;;;;15.73;9.43;;;;;;;;;;776505;178;624173;-67
2022/03/15 10:07:46;;;;;;;13.97;8.40;;;;;;;;;;778818;179;641734;-67
2022/03/15 10:10:12;;;;;;;14.30;9.77;;;;;;;;;;785013;178;623060;-67
2022/03/15 10:12:38;;;;;;;17.30;9.10;;;;;;;;;;777523;179;630870;-66
2022/03/15 10:15:10;;;;;;;16.27;10.43;;;;;;;;;;776173;180;629565;-67
2022/03/15 10:17:41;;;;;;;13.97;9.30;;;;;;;;;;781742;179;636636;-67
2022/03/15 10:20:08;;;;;;;12.53;9.50;;;;;;;;;;778859;179;623446;-68
2022/03/15 10:22:33;;;;;;;16.20;9.27;;;;;;;;;;779082;179;631630;-67
2022/03/15 10:25:00;;;;;;;13.33;9.80;;;;;;;;;;775267;179;954761;-66
2022/03/15 10:27:25;;;;;;;14.03;9.30;;;;;;;;;;784397;179;616957;-66
2022/03/15 10:29:51;;;;;;;14.27;9.20;;;;;;;;;;781534;180;616961;-67
2022/03/15 10:32:17;;;;;;;18.13;9.20;;;;;;;;;;777600;179;633918;-67
2022/03/15 10:34:42;;;;;;;22.10;9.17;;;;;;;;;;780192;178;633898;-68
2022/03/15 10:37:08;;;;;;;16.80;9.17;;;;;;;;;;779540;179;633935;-68
2022/03/15 10:39:34;;;;;;;15.07;9.30;;;;;;;;;;776711;179;772567;-67
2022/03/15 10:42:00;;;;;;;16.90;9.33;;;;;;;;;;776533;180;622855;-68
2022/03/15 10:44:28;;;;;;;18.20;9.50;;;;;;;;;;784115;177;627989;-68
2022/03/15 10:47:00;;;;;;;13.37;9.13;;;;;;;;;;782159;176;641418;-67
2022/03/15 10:49:26;;;;;;;14.30;8.77;;;;;;;;;;782522;178;625231;-67
2022/03/15 10:51:52;;;;;;;12.82;8.63;;;;;;;;;;781075;179;629090;-67
2022/03/15 10:54:18;;;;;;;15.20;9.73;;;;;;;;;;781395;179;626812;-67
2022/03/15 10:56:49;;;;;;;14.27;9.43;;;;;;;;;;781548;177;640680;-67
2022/03/15 10:59:15;;;;;;;15.00;9.10;;;;;;;;;;778188;177;642419;-67
2022/03/15 11:01:41;;;;;;;16.77;8.77;;;;;;;;;;778474;178;632926;-68
2022/03/15 11:04:07;;;;;;;14.50;8.87;;;;;;;;;;777625;178;627142;-66
2022/03/15 11:06:37;;;;;;;13.73;9.57;;;;;;;;;;781835;179;618542;-66
2022/03/15 11:08:59;;;;;;;16.47;10.30;;;;;;;;;;783589;180;625448;-67
2022/03/15 11:11:26;;;;;;;14.03;9.50;;;;;;;;;;781390;177;615642;-67
2022/03/15 11:13:50;;;;;;;18.53;10.33;;;;;;;;;;783082;179;643085;-67
2022/03/15 11:16:16;;;;;;;14.80;9.30;;;;;;;;;;777022;178;719793;-67
2022/03/15 11:18:42;;;;;;;14.20;8.93;;;;;;;;;;783321;179;639299;-67
2022/03/15 11:21:08;;;;;;;11.93;8.30;;;;;;;;;;779032;180;635979;-65
2022/03/15 11:23:34;;;;;;;12.13;8.00;;;;;;;;;;780191;179;625509;-71
2022/03/15 11:26:01;;;;;;;10.60;7.80;;;;;;;;;;778924;180;613724;-65
2022/03/15 11:28:26;;;;;;;13.40;8.03;;;;;;;;;;769561;182;640122;-68
2022/03/15 11:30:52;;;;;;;10.87;8.73;;;;;;;;;;781331;180;637360;-67
2022/03/15 11:33:18;;;;;;;12.90;7.87;;;;;;;;;;779121;177;624274;-68
2022/03/15 11:35:44;;;;;;;15.07;8.83;;;;;;;;;;777179;177;617191;-67
2022/03/15 11:38:10;;;;;;;12.17;8.77;;;;;;;;;;765591;177;2077053;-67
2022/03/15 11:40:36;;;;;;;15.87;8.90;;;;;;;;;;773695;179;634958;-67
2022/03/15 11:43:01;;;;;;;9.60;7.43;;;;;;;;;;776969;179;627269;-67
2022/03/15 11:45:32;;;;;;;13.60;8.40;;;;;;;;;;777799;179;635807;-67
2022/03/15 11:48:03;;;;;;;10.80;8.03;;;;;;;;;;775882;178;623376;-69
2022/03/15 11:50:49;;;;;;;11.90;7.83;;;;;;;;;;784214;179;616884;-67
2022/03/15 11:53:16;;;;;;;11.30;8.50;;;;;;;;;;781524;179;638435;-71
2022/03/15 11:55:45;;;;;;;15.37;8.80;;;;;;;;;;783531;179;642921;-68
2022/03/15 11:58:11;;;;;;;15.53;9.00;;;;;;;;;;777448;179;648725;-68
2022/03/15 12:00:38;;;;;;;14.13;8.87;;;;;;;;;;778502;178;626388;-68
2022/03/15 12:03:04;;;;;;;12.80;8.20;;;;;;;;;;781918;179;614536;-68
2022/03/15 12:05:30;;;;;;;14.47;9.43;;;;;;;;;;773793;177;634580;-68
2022/03/15 12:08:01;;;;;;;12.63;7.97;;;;;;;;;;784816;177;633410;-69
2022/03/15 12:10:28;;;;;;;12.33;7.93;;;;;;;;;;784740;179;623416;-68
2022/03/15 12:12:57;;;;;;;13.50;8.07;;;;;;;;;;785443;177;640498;-67
2022/03/15 12:15:27;;;;;;;13.13;8.30;;;;;;;;;;780205;177;749285;-68
2022/03/15 12:17:49;;;;;;;11.37;8.00;;;;;;;;;;771252;179;918754;-67
2022/03/15 12:20:20;;;;;;;10.33;7.50;;;;;;;;;;778013;179;618074;-68
2022/03/15 12:22:43;;;;;;;12.97;9.67;;;;;;;;;;778669;177;919269;-68
2022/03/15 12:25:07;;;;;;;11.00;8.43;;;;;;;;;;777464;179;619585;-70
2022/03/15 12:27:39;;;;;;;12.53;9.20;;;;;;;;;;776956;178;633928;-68
2022/03/15 12:30:05;;;;;;;13.40;8.30;;;;;;;;;;784409;179;642284;-67
2022/03/15 12:32:31;;;;;;;12.97;8.87;;;;;;;;;;776082;179;634245;-69
2022/03/15 12:34:57;;;;;;;12.67;7.90;;;;;;;;;;772893;179;648572;-68
2022/03/15 12:37:29;;;;;;;13.63;8.87;;;;;;;;;;784338;177;625400;-68
2022/03/15 12:39:54;;;;;;;13.40;8.63;;;;;;;;;;784737;180;620199;-69
2022/03/15 12:42:20;;;;;;;13.70;8.70;;;;;;;;;;776593;179;625458;-69
2022/03/15 12:44:48;;;;;;;10.33;7.53;;;;;;;;;;781362;179;620092;-68
2022/03/15 12:47:13;;;;;;;11.60;8.47;;;;;;;;;;782776;179;641633;-72
2022/03/15 12:49:38;;;;;;;13.90;9.53;;;;;;;;;;777033;177;633292;-68
2022/03/15 12:52:10;;;;;;;11.93;8.10;;;;;;;;;;780346;177;625290;-68
2022/03/15 12:54:36;;;;;;;14.53;9.40;;;;;;;;;;781989;179;641062;-67
2022/03/15 12:57:10;;;;;;;16.93;9.33;;;;;;;;;;784248;179;620319;-68
2022/03/15 12:59:35;;;;;;;15.73;8.77;;;;;;;;;;782012;177;614813;-67
2022/03/15 13:02:03;;;;;;;15.53;9.50;;;;;;;;;;780721;177;628446;-68
2022/03/15 13:04:27;;;;;;;12.10;9.13;;;;;;;;;;780059;178;632103;-68
2022/03/15 13:06:53;;;;;;;13.40;8.87;;;;;;;;;;765949;182;637008;-69
2022/03/15 13:09:23;;;;;;;15.17;11.07;;;;;;;;;;779605;176;755550;-68
2022/03/15 13:11:48;;;;;;;16.67;9.80;;;;;;;;;;780712;179;626197;-68
2022/03/15 13:14:13;;;;;;;11.73;8.43;;;;;;;;;;784491;179;618366;-68
2022/03/15 13:16:46;;;;;;;15.73;9.00;;;;;;;;;;782361;177;631212;-69
2022/03/15 13:19:12;;;;;;;17.37;10.10;;;;;;;;;;781983;178;618107;-69
2022/03/15 13:21:39;;;;;;;13.43;10.43;;;;;;;;;;779504;179;704169;-68
2022/03/15 13:24:07;;;;;;;15.23;9.70;;;;;;;;;;784943;179;634913;-68
2022/03/15 13:26:33;;;;;;;12.07;8.83;;;;;;;;;;783199;179;627860;-68
2022/03/15 13:29:00;;;;;;;11.93;9.20;;;;;;;;;;777564;179;631412;-67
2022/03/15 13:31:25;;;;;;;15.13;9.33;;;;;;;;;;780483;179;629769;-68
2022/03/15 13:33:52;;;;;;;17.43;10.83;;;;;;;;;;774057;179;627532;-67
2022/03/15 13:36:18;;;;;;;14.23;9.53;;;;;;;;;;770897;178;620321;-68
2022/03/15 13:38:44;;;;;;;15.87;10.80;;;;;;;;;;781222;176;632534;-68
2022/03/15 13:41:08;;;;;;;14.63;9.63;;;;;;;;;;768688;182;636404;-67
2022/03/15 13:43:34;;;;;;;24.30;12.40;;;;;;;;;;778109;176;628541;-69
2022/03/15 13:46:04;;;;;;;18.80;12.20;;;;;;;;;;780180;179;634038;-67
2022/03/15 13:48:30;;;;;;;17.37;12.73;;;;;;;;;;783074;178;625369;-70
2022/03/15 13:50:57;;;;;;;16.13;10.33;;;;;;;;;;780768;179;627552;-68
2022/03/15 13:53:22;;;;;;;12.13;10.10;;;;;;;;;;778416;180;642862;-68
2022/03/15 13:55:47;;;;;;;15.77;9.73;;;;;;;;;;779880;180;637185;-68
2022/03/15 13:58:13;;;;;;;14.37;9.17;;;;;;;;;;781014;179;714290;-69
2022/03/15 14:00:40;;;;;;;18.30;10.50;;;;;;;;;;773495;179;617424;-72
2022/03/15 14:03:05;;;;;;;14.13;11.07;;;;;;;;;;776906;179;629593;-69